createdAt,value
2018-02-17T00:01:21.662Z,15.80
2018-02-17T00:03:47.557Z,17.70
2018-02-17T00:06:13.522Z,16.40
2018-02-17T00:08:39.428Z,16.80
2018-02-17T00:11:05.294Z,17.77
2018-02-17T00:13:31.162Z,16.57
2018-02-17T00:15:57.093Z,17.20
2018-02-17T00:18:23.085Z,17.30
2018-02-17T00:20:49.002Z,18.93
2018-02-17T00:23:14.905Z,18.03
2018-02-17T00:25:40.763Z,16.47
2018-02-17T00:28:06.636Z,18.77
2018-02-17T00:30:32.655Z,17.57
2018-02-17T00:32:58.504Z,20.50
2018-02-17T00:35:24.354Z,16.53
2018-02-17T00:37:50.264Z,13.60
2018-02-17T00:40:16.138Z,16.97
2018-02-17T00:42:42.089Z,16.73
2018-02-17T00:45:08.322Z,16.57
2018-02-17T00:47:34.218Z,15.67
2018-02-17T00:50:00.069Z,18.40
2018-02-17T00:52:25.974Z,18.73
2018-02-17T00:54:51.917Z,19.00
2018-02-17T00:57:17.764Z,18.37
2018-02-17T00:59:43.660Z,16.50
2018-02-17T01:02:09.516Z,16.53
2018-02-17T01:04:35.407Z,17.50
2018-02-17T01:07:01.406Z,20.60
2018-02-17T01:09:27.252Z,19.87
2018-02-17T01:11:53.092Z,17.50
2018-02-17T01:14:19.057Z,16.80
2018-02-17T01:16:44.944Z,19.57
2018-02-17T01:19:10.910Z,17.70
2018-02-17T01:21:36.796Z,21.30
2018-02-17T01:24:02.662Z,22.07
2018-02-17T01:26:28.509Z,22.23
2018-02-17T01:28:54.423Z,20.33
2018-02-17T01:31:20.375Z,22.20
2018-02-17T01:33:46.227Z,20.60
2018-02-17T01:36:12.132Z,21.03
2018-02-17T01:38:37.991Z,20.43
2018-02-17T01:41:03.860Z,20.97
2018-02-17T01:43:29.896Z,21.17
2018-02-17T01:45:55.805Z,23.37
2018-02-17T01:48:21.640Z,22.67
2018-02-17T01:50:47.527Z,24.20
2018-02-17T01:53:13.414Z,23.70
2018-02-17T01:55:39.367Z,22.40
2018-02-17T01:58:05.272Z,23.77
2018-02-17T02:00:31.201Z,20.00
2018-02-17T02:02:57.051Z,22.97
2018-02-17T02:05:23.258Z,17.80
2018-02-17T02:07:49.204Z,20.40
2018-02-17T02:10:15.045Z,22.87
2018-02-17T02:12:40.936Z,20.03
2018-02-17T02:15:06.802Z,20.50
2018-02-17T02:17:32.708Z,20.43
2018-02-17T02:19:58.704Z,20.47
2018-02-17T02:22:24.569Z,21.03
2018-02-17T02:24:50.422Z,22.87
2018-02-17T02:27:16.476Z,17.80
2018-02-17T02:29:42.328Z,21.53
2018-02-17T02:32:08.257Z,19.83
2018-02-17T02:34:34.152Z,19.43
2018-02-17T02:37:00.314Z,20.23
2018-02-17T02:39:26.228Z,19.73
2018-02-17T02:41:52.116Z,17.77
2018-02-17T02:44:18.054Z,21.37
2018-02-17T02:46:43.896Z,22.50
2018-02-17T02:49:09.785Z,22.00
2018-02-17T02:51:35.641Z,20.37
2018-02-17T02:54:01.542Z,21.13
2018-02-17T02:56:27.529Z,21.00
2018-02-17T02:58:53.385Z,22.50
2018-02-17T03:01:19.340Z,21.93
2018-02-17T03:03:45.238Z,21.67
2018-02-17T03:06:11.149Z,21.07
2018-02-17T03:08:37.165Z,21.17
2018-02-17T03:11:03.052Z,20.97
2018-02-17T03:13:28.906Z,20.73
2018-02-17T03:15:54.762Z,19.73
2018-02-17T03:18:20.713Z,20.80
2018-02-17T03:20:46.688Z,21.43
2018-02-17T03:23:12.545Z,22.03
2018-02-17T03:25:38.444Z,20.30
2018-02-17T03:28:04.309Z,21.57
2018-02-17T03:30:30.216Z,22.03
2018-02-17T03:32:56.516Z,22.17
2018-02-17T03:35:22.374Z,21.93
2018-02-17T03:37:48.224Z,21.53
2018-02-17T03:40:14.133Z,21.20
2018-02-17T03:42:40.034Z,21.87
2018-02-17T03:45:05.985Z,21.73
2018-02-17T03:47:31.886Z,20.00
2018-02-17T03:49:57.769Z,22.00
2018-02-17T03:52:23.615Z,23.20
2018-02-17T03:54:49.559Z,21.23
2018-02-17T03:57:15.516Z,22.03
2018-02-17T03:59:41.384Z,21.77
2018-02-17T04:02:07.378Z,22.47
2018-02-17T04:04:33.224Z,22.70
2018-02-17T04:06:59.142Z,21.30
2018-02-17T04:09:25.520Z,22.87
2018-02-17T04:11:51.456Z,19.47
2018-02-17T04:14:17.301Z,21.83
2018-02-17T04:16:43.274Z,22.10
2018-02-17T04:19:09.218Z,23.87
2018-02-17T04:21:35.156Z,22.20
2018-02-17T04:24:01.061Z,20.50
2018-02-17T04:26:26.915Z,21.73
2018-02-17T04:28:52.798Z,20.67
2018-02-17T04:31:18.755Z,21.50
2018-02-17T04:33:44.669Z,21.87
2018-02-17T04:36:10.504Z,19.77
2018-02-17T04:38:36.431Z,21.53
2018-02-17T04:41:06.354Z,22.37
2018-02-17T04:43:33.190Z,20.43
2018-02-17T04:46:15.397Z,20.80
2018-02-17T04:48:43.343Z,21.50
2018-02-17T04:54:19.105Z,20.27
2018-02-17T04:56:50.116Z,22.30
2018-02-17T04:59:17.935Z,21.17
2018-02-17T05:01:45.577Z,23.13
2018-02-17T05:04:12.333Z,18.73
2018-02-17T05:06:42.192Z,25.07
2018-02-17T05:09:08.145Z,20.37
2018-02-17T05:11:34.049Z,22.03
2018-02-17T05:14:00.879Z,22.50
2018-02-17T05:16:37.203Z,22.47
2018-02-17T05:22:07.796Z,22.00
2018-02-17T05:24:34.493Z,23.00
2018-02-17T05:27:01.564Z,22.50
2018-02-17T05:29:29.329Z,22.67
2018-02-17T05:31:55.191Z,21.10
2018-02-17T05:34:27.274Z,20.80
2018-02-17T05:36:55.022Z,21.53
2018-02-17T05:39:26.953Z,22.30
2018-02-17T05:42:12.965Z,22.77
2018-02-17T05:44:38.921Z,22.27
2018-02-17T05:47:05.795Z,23.70
2018-02-17T05:52:37.994Z,21.33
2018-02-17T05:55:04.141Z,22.57
2018-02-17T05:57:29.997Z,24.33
2018-02-17T05:59:55.902Z,23.73
2018-02-17T06:02:22.263Z,20.97
2018-02-17T06:04:48.127Z,20.80
2018-02-17T06:07:14.060Z,23.37
2018-02-17T06:09:39.956Z,23.13
2018-02-17T06:12:05.906Z,21.47
2018-02-17T06:14:31.764Z,22.90
2018-02-17T06:16:57.672Z,23.77
2018-02-17T06:19:23.683Z,24.33
2018-02-17T06:21:49.528Z,23.37
2018-02-17T06:24:15.468Z,23.10
2018-02-17T06:26:41.331Z,23.20
2018-02-17T06:29:07.178Z,23.13
2018-02-17T06:31:33.165Z,22.80
2018-02-17T06:33:59.384Z,21.97
2018-02-17T06:36:25.312Z,22.50
2018-02-17T06:38:51.196Z,21.73
2018-02-17T06:41:17.144Z,21.80
2018-02-17T06:43:43.097Z,22.57
2018-02-17T06:46:08.984Z,21.90
2018-02-17T06:48:34.890Z,23.07
2018-02-17T06:51:00.768Z,23.23
2018-02-17T06:53:26.647Z,22.50
2018-02-17T06:55:52.564Z,22.80
2018-02-17T06:58:18.406Z,22.03
2018-02-17T07:00:44.353Z,21.77
2018-02-17T07:03:10.201Z,23.17
2018-02-17T07:05:36.053Z,22.00
2018-02-17T07:08:02.047Z,22.93
2018-02-17T07:10:27.902Z,20.57
2018-02-17T07:12:53.793Z,21.80
2018-02-17T07:15:20.046Z,21.10
2018-02-17T07:17:45.891Z,23.73
2018-02-17T07:20:11.830Z,22.67
2018-02-17T07:22:37.712Z,21.97
2018-02-17T07:25:03.725Z,20.73
2018-02-17T07:27:29.587Z,22.47
2018-02-17T07:29:55.488Z,22.23
2018-02-17T07:32:21.415Z,20.93
2018-02-17T07:34:47.258Z,21.97
2018-02-17T07:37:13.205Z,20.13
2018-02-17T07:39:39.952Z,23.17
2018-02-17T07:42:05.797Z,23.30
2018-02-17T07:44:31.776Z,21.40
2018-02-17T07:47:04.560Z,22.63
2018-02-17T07:49:30.471Z,22.60
2018-02-17T07:51:56.715Z,21.17
2018-02-17T07:54:22.584Z,21.13
2018-02-17T07:56:48.539Z,21.87
2018-02-17T07:59:14.448Z,22.90
2018-02-17T08:01:40.357Z,22.77
2018-02-17T08:04:06.292Z,21.00
2018-02-17T08:06:32.205Z,22.90
2018-02-17T08:08:58.141Z,23.23
2018-02-17T08:11:23.980Z,22.93
2018-02-17T08:13:49.920Z,22.03
2018-02-17T08:16:15.761Z,22.20
2018-02-17T08:18:41.612Z,22.97
2018-02-17T08:21:07.584Z,22.80
2018-02-17T08:23:33.536Z,22.53
2018-02-17T08:25:59.757Z,22.50
2018-02-17T08:28:25.662Z,23.00
2018-02-17T08:30:51.520Z,22.50
2018-02-17T08:33:17.458Z,22.93
2018-02-17T08:35:43.369Z,22.03
2018-02-17T08:38:09.269Z,22.90
2018-02-17T08:40:35.161Z,21.47
2018-02-17T08:43:01.068Z,22.80
2018-02-17T08:45:27.013Z,23.67
2018-02-17T08:47:52.906Z,23.20
2018-02-17T08:50:18.848Z,22.43
2018-02-17T08:52:44.684Z,22.90
2018-02-17T08:55:10.536Z,20.70
2018-02-17T08:57:36.508Z,23.50
2018-02-17T09:00:02.380Z,22.77
2018-02-17T09:02:28.272Z,24.73
2018-02-17T09:04:54.179Z,21.97
2018-02-17T09:07:20.008Z,22.57
2018-02-17T09:09:45.916Z,20.33
2018-02-17T09:12:11.861Z,21.27
2018-02-17T09:14:37.752Z,22.17
2018-02-17T09:17:03.613Z,21.73
2018-02-17T09:19:29.577Z,22.73
2018-02-17T09:21:55.471Z,22.27
2018-02-17T09:24:21.337Z,22.17
2018-02-17T09:26:47.280Z,22.63
2018-02-17T09:29:13.118Z,22.03
2018-02-17T09:31:39.020Z,21.83
2018-02-17T09:34:05.794Z,20.63
2018-02-17T09:36:31.639Z,22.13
2018-02-17T09:38:57.552Z,23.27
2018-02-17T09:41:23.462Z,22.80
2018-02-17T09:43:49.355Z,22.80
2018-02-17T09:46:15.269Z,20.87
2018-02-17T09:48:41.152Z,22.73
2018-02-17T09:51:07.050Z,22.67
2018-02-17T09:53:32.908Z,21.97
2018-02-17T09:55:58.861Z,21.70
2018-02-17T09:58:24.773Z,19.57
2018-02-17T10:00:50.634Z,21.67
2018-02-17T10:03:16.588Z,19.73
2018-02-17T10:05:42.432Z,20.23
2018-02-17T10:08:08.324Z,20.73
2018-02-17T10:10:34.264Z,20.30
2018-02-17T10:13:00.096Z,22.07
2018-02-17T10:15:25.992Z,20.67
2018-02-17T10:17:51.971Z,21.13
2018-02-17T10:20:17.860Z,22.60
2018-02-17T10:22:43.809Z,21.03
2018-02-17T10:25:09.702Z,21.60
2018-02-17T10:27:35.623Z,22.13
2018-02-17T10:30:01.493Z,21.97
2018-02-17T10:32:27.472Z,21.60
2018-02-17T10:34:53.381Z,20.83
2018-02-17T10:37:19.217Z,21.97
2018-02-17T10:39:45.158Z,23.17
2018-02-17T10:42:10.987Z,21.27
2018-02-17T10:44:36.880Z,22.30
2018-02-17T10:47:09.709Z,20.10
2018-02-17T10:49:35.561Z,21.40
2018-02-17T10:52:01.464Z,20.00
2018-02-17T10:54:27.355Z,21.47
2018-02-17T10:56:53.263Z,21.10
2018-02-17T10:59:19.165Z,21.60
2018-02-17T11:01:45.061Z,21.40
2018-02-17T11:04:10.986Z,22.23
2018-02-17T11:06:36.828Z,21.23
2018-02-17T11:09:02.800Z,21.13
2018-02-17T11:11:28.800Z,22.60
2018-02-17T11:13:54.654Z,23.47
2018-02-17T11:16:20.642Z,20.93
2018-02-17T11:18:46.492Z,19.03
2018-02-17T11:21:12.379Z,20.53
2018-02-17T11:23:38.344Z,21.07
2018-02-17T11:26:04.194Z,20.10
2018-02-17T11:28:30.110Z,20.27
2018-02-17T11:30:56.001Z,20.67
2018-02-17T11:33:21.902Z,18.30
2018-02-17T11:35:47.839Z,20.53
2018-02-17T11:38:13.712Z,20.03
2018-02-17T11:40:39.621Z,19.60
2018-02-17T11:43:05.455Z,19.80
2018-02-17T11:45:31.514Z,18.57
2018-02-17T11:47:57.437Z,19.80
2018-02-17T11:50:23.276Z,20.03
2018-02-17T11:52:49.228Z,20.67
2018-02-17T11:55:15.084Z,20.67
2018-02-17T11:57:41.022Z,19.67
2018-02-17T12:00:07.076Z,20.53
2018-02-17T12:02:32.965Z,20.93
2018-02-17T12:04:58.878Z,19.83
2018-02-17T12:07:24.778Z,19.73
2018-02-17T12:09:50.784Z,19.33
2018-02-17T12:12:16.696Z,20.97
2018-02-17T12:14:42.582Z,18.40
2018-02-17T12:17:08.486Z,20.10
2018-02-17T12:19:34.331Z,19.60
2018-02-17T12:22:00.270Z,19.17
2018-02-17T12:24:26.184Z,20.70
2018-02-17T12:26:52.025Z,19.37
2018-02-17T12:29:17.988Z,19.07
2018-02-17T12:31:43.820Z,18.93
2018-02-17T12:34:09.717Z,19.57
2018-02-17T12:36:35.678Z,20.87
2018-02-17T12:39:01.557Z,19.83
2018-02-17T12:41:27.460Z,18.83
2018-02-17T12:43:53.348Z,19.03
2018-02-17T12:46:19.236Z,18.23
2018-02-17T12:48:45.126Z,18.50
2018-02-17T12:51:11.008Z,18.33
2018-02-17T12:53:36.909Z,18.97
2018-02-17T12:56:02.762Z,18.77
2018-02-17T12:58:28.708Z,17.30
2018-02-17T13:00:54.617Z,16.67
2018-02-17T13:03:20.460Z,17.03
2018-02-17T13:05:46.406Z,18.93
2018-02-17T13:08:12.262Z,19.00
2018-02-17T13:10:38.159Z,18.33
2018-02-17T13:13:04.141Z,19.77
2018-02-17T13:15:30.007Z,18.53
2018-02-17T13:17:55.960Z,18.37
2018-02-17T13:20:21.838Z,17.37
2018-02-17T13:22:47.737Z,17.80
2018-02-17T13:25:13.670Z,19.73
2018-02-17T13:27:39.566Z,18.43
2018-02-17T13:30:05.551Z,18.53
2018-02-17T13:32:31.388Z,18.63
2018-02-17T13:34:57.316Z,21.70
2018-02-17T13:37:23.233Z,19.17
2018-02-17T13:39:49.076Z,21.63
2018-02-17T13:42:15.020Z,20.87
2018-02-17T13:44:40.865Z,20.00
2018-02-17T13:47:06.764Z,20.13
2018-02-17T13:49:32.729Z,20.40
2018-02-17T13:51:58.570Z,21.20
2018-02-17T13:54:24.474Z,18.23
2018-02-17T13:56:50.378Z,27.20
2018-02-17T13:59:16.297Z,26.07
2018-02-17T14:01:42.270Z,27.53
2018-02-17T14:04:08.167Z,24.03
2018-02-17T14:06:34.074Z,25.30
2018-02-17T14:08:59.927Z,25.07
2018-02-17T14:11:25.873Z,24.60
2018-02-17T14:13:51.855Z,24.63
2018-02-17T14:16:17.685Z,23.40
2018-02-17T14:18:43.630Z,20.97
2018-02-17T14:21:09.467Z,24.43
2018-02-17T14:23:35.363Z,23.70
2018-02-17T14:26:01.317Z,24.37
2018-02-17T14:28:27.156Z,22.40
2018-02-17T14:30:53.104Z,24.43
2018-02-17T14:33:18.984Z,23.83
2018-02-17T14:35:44.890Z,21.50
2018-02-17T14:38:10.814Z,20.13
2018-02-17T14:40:36.707Z,23.43
2018-02-17T14:43:02.630Z,21.23
2018-02-17T14:45:35.488Z,22.30
2018-02-17T14:48:01.420Z,21.50
2018-02-17T14:50:27.341Z,23.20
2018-02-17T14:52:53.204Z,23.20
2018-02-17T14:55:19.185Z,23.50
2018-02-17T14:57:45.058Z,23.10
2018-02-17T15:00:10.962Z,22.20
2018-02-17T15:02:36.916Z,23.47
2018-02-17T15:05:02.770Z,24.17
2018-02-17T15:07:28.682Z,26.87
2018-02-17T15:09:54.620Z,23.37
2018-02-17T15:12:20.488Z,23.63
2018-02-17T15:14:46.396Z,22.40
2018-02-17T15:17:12.288Z,22.90
2018-02-17T15:19:38.250Z,20.60
2018-02-17T15:22:04.104Z,21.63
2018-02-17T15:24:30.052Z,21.00
2018-02-17T15:26:55.952Z,20.07
2018-02-17T15:29:21.808Z,19.33
2018-02-17T15:31:49.664Z,17.87
2018-02-17T15:34:15.609Z,17.73
2018-02-17T15:36:41.514Z,17.97
2018-02-17T15:39:07.471Z,18.33
2018-02-17T15:41:33.325Z,18.17
2018-02-17T15:43:59.279Z,18.50
2018-02-17T15:46:25.162Z,16.30
2018-02-17T15:48:51.052Z,18.73
2018-02-17T15:51:16.965Z,22.10
2018-02-17T15:53:42.857Z,23.00
2018-02-17T15:56:08.760Z,23.00
2018-02-17T15:58:34.618Z,19.73
2018-02-17T16:01:00.569Z,20.00
2018-02-17T16:03:26.587Z,19.90
2018-02-17T16:05:52.432Z,20.47
2018-02-17T16:08:18.375Z,20.03
2018-02-17T16:10:44.253Z,20.37
2018-02-17T16:13:10.150Z,20.60
2018-02-17T16:15:36.100Z,18.90
2018-02-17T16:18:02.022Z,19.67
2018-02-17T16:20:27.953Z,19.30
2018-02-17T16:22:53.866Z,20.83
2018-02-17T16:25:19.755Z,18.83
2018-02-17T16:27:45.666Z,21.13
2018-02-17T16:30:11.570Z,18.43
2018-02-17T16:32:37.536Z,16.40
2018-02-17T16:35:03.394Z,16.57
2018-02-17T16:37:29.336Z,17.67
2018-02-17T16:39:55.241Z,17.40
2018-02-17T16:42:21.080Z,18.77
2018-02-17T16:44:47.016Z,18.93
2018-02-17T16:47:12.848Z,18.40
2018-02-17T16:49:38.733Z,17.70
2018-02-17T16:52:04.681Z,17.60
2018-02-17T16:54:30.537Z,18.30
2018-02-17T16:56:56.437Z,16.77
2018-02-17T16:59:22.328Z,16.10
2018-02-17T17:01:48.212Z,17.33
2018-02-17T17:04:14.117Z,18.53
2018-02-17T17:06:40.016Z,17.80
2018-02-17T17:09:05.920Z,15.53
2018-02-17T17:11:31.789Z,15.20
2018-02-17T17:13:57.745Z,16.93
2018-02-17T17:16:23.756Z,16.07
2018-02-17T17:18:49.606Z,13.40
2018-02-17T17:21:15.858Z,13.83
2018-02-17T17:23:41.704Z,12.80
2018-02-17T17:26:07.599Z,14.57
2018-02-17T17:28:33.552Z,16.27
2018-02-17T17:30:59.401Z,17.20
2018-02-17T17:33:25.304Z,16.73
2018-02-17T17:35:51.213Z,16.40
2018-02-17T17:38:17.106Z,16.93
2018-02-17T17:40:43.053Z,15.03
2018-02-17T17:43:08.944Z,14.77
2018-02-17T17:45:34.849Z,14.47
2018-02-17T17:48:00.725Z,16.37
2018-02-17T17:50:26.673Z,17.67
2018-02-17T17:52:52.587Z,18.20
2018-02-17T17:55:18.442Z,18.33
2018-02-17T17:57:44.760Z,16.63
2018-02-17T18:00:10.650Z,18.67
2018-02-17T18:02:36.555Z,15.70
2018-02-17T18:08:00.246Z,14.70
2018-02-17T18:10:26.102Z,18.83
2018-02-17T18:12:52.082Z,16.27
2018-02-17T18:15:17.986Z,17.67
2018-02-17T18:17:43.844Z,17.30
2018-02-17T18:20:09.886Z,16.70
2018-02-17T18:22:35.745Z,17.30
2018-02-17T18:25:01.649Z,19.20
2018-02-17T18:27:27.500Z,19.33
2018-02-17T18:29:53.406Z,15.67
2018-02-17T18:32:19.395Z,17.17
2018-02-17T18:34:45.248Z,17.10
2018-02-17T18:37:11.191Z,16.70
2018-02-17T18:39:37.041Z,15.43
2018-02-17T18:42:02.902Z,14.37
2018-02-17T18:44:28.957Z,16.63
2018-02-17T18:46:54.818Z,14.30
2018-02-17T18:49:20.725Z,14.90
2018-02-17T18:51:46.624Z,14.30
2018-02-17T18:54:12.471Z,13.80
2018-02-17T18:56:38.457Z,15.33
2018-02-17T18:59:04.348Z,15.50
2018-02-17T19:01:30.287Z,14.57
2018-02-17T19:03:56.155Z,12.47
2018-02-17T19:06:22.118Z,10.73
2018-02-17T19:08:48.089Z,10.03
2018-02-17T19:11:14.230Z,13.23
2018-02-17T19:13:40.770Z,13.67
2018-02-17T19:16:07.029Z,12.10
2018-02-17T19:18:33.393Z,12.80
2018-02-17T19:21:00.129Z,13.27
2018-02-17T19:23:26.469Z,12.87
2018-02-17T19:25:52.746Z,14.63
2018-02-17T19:28:19.048Z,11.63
2018-02-17T19:30:45.305Z,11.60
2018-02-17T19:33:11.340Z,12.60
2018-02-17T19:35:37.364Z,12.27
2018-02-17T19:38:03.675Z,11.40
2018-02-17T19:40:29.862Z,13.37
2018-02-17T19:42:56.088Z,12.60
2018-02-17T19:45:22.517Z,12.43
2018-02-17T19:47:48.793Z,12.20
2018-02-17T19:50:14.986Z,10.77
2018-02-17T19:52:40.864Z,12.77
2018-02-17T19:55:06.758Z,11.40
2018-02-17T19:57:32.812Z,13.37
2018-02-17T19:59:58.659Z,13.07
2018-02-17T20:02:25.208Z,12.53
2018-02-17T20:04:51.150Z,12.63
2018-02-17T20:07:17.230Z,12.57
2018-02-17T20:09:43.209Z,11.20
2018-02-17T20:12:09.346Z,11.77
2018-02-17T20:14:35.273Z,10.90
2018-02-17T20:17:01.240Z,12.33
2018-02-17T20:19:27.123Z,11.33
2018-02-17T20:21:53.103Z,10.20
2018-02-17T20:24:19.033Z,10.17
2018-02-17T20:26:45.013Z,12.90
2018-02-17T20:29:10.868Z,12.17
2018-02-17T20:31:36.699Z,11.97
2018-02-17T20:34:03.030Z,11.00
2018-02-17T20:36:28.894Z,10.87
2018-02-17T20:38:54.802Z,12.70
2018-02-17T20:41:20.790Z,12.20
2018-02-17T20:43:46.645Z,12.57
2018-02-17T20:46:12.626Z,11.27
2018-02-17T20:48:38.529Z,10.67
2018-02-17T20:51:04.440Z,11.60
2018-02-17T20:53:30.284Z,13.47
2018-02-17T20:55:56.193Z,12.37
2018-02-17T20:58:22.156Z,13.73
2018-02-17T21:00:47.996Z,12.00
2018-02-17T21:03:13.953Z,11.10
2018-02-17T21:05:39.800Z,10.97
2018-02-17T21:08:05.653Z,9.40
2018-02-17T21:10:31.672Z,10.83
2018-02-17T21:12:57.536Z,10.27
2018-02-17T21:15:23.436Z,9.80
2018-02-17T21:17:49.330Z,10.27
2018-02-17T21:20:15.201Z,11.13
2018-02-17T21:22:41.186Z,10.17
2018-02-17T21:25:07.072Z,9.67
2018-02-17T21:27:32.973Z,8.83
2018-02-17T21:29:58.821Z,8.40
2018-02-17T21:32:25.065Z,10.17
2018-02-17T21:34:51.045Z,9.13
2018-02-17T21:37:16.884Z,7.60
2018-02-17T21:39:42.820Z,9.00
2018-02-17T21:42:08.666Z,7.97
2018-02-17T21:44:34.512Z,7.67
2018-02-17T21:47:00.559Z,8.07
2018-02-17T21:49:26.400Z,9.03
2018-02-17T21:51:52.306Z,8.27
2018-02-17T21:54:18.209Z,8.30
2018-02-17T21:56:44.057Z,8.37
2018-02-17T21:59:10.132Z,6.20
2018-02-17T22:01:36.060Z,8.57
2018-02-17T22:04:01.967Z,7.83
2018-02-17T22:06:28.163Z,7.13
2018-02-17T22:08:54.137Z,7.50
2018-02-17T22:11:20.113Z,7.57
2018-02-17T22:13:45.960Z,8.53
2018-02-17T22:16:11.904Z,7.40
2018-02-17T22:18:37.768Z,7.67
2018-02-17T22:21:03.614Z,6.90
2018-02-17T22:23:29.636Z,7.40
2018-02-17T22:25:55.490Z,7.90
2018-02-17T22:28:21.393Z,6.47
2018-02-17T22:30:47.296Z,7.43
2018-02-17T22:33:13.162Z,6.93
2018-02-17T22:35:39.132Z,6.67
2018-02-17T22:38:05.020Z,6.37
2018-02-17T22:40:30.912Z,6.73
2018-02-17T22:42:56.778Z,6.53
2018-02-17T22:45:22.694Z,7.10
2018-02-17T22:47:48.703Z,6.63
2018-02-17T22:50:14.562Z,7.70
2018-02-17T22:52:40.550Z,6.60
2018-02-17T22:55:06.388Z,7.87
2018-02-17T22:57:32.234Z,7.67
2018-02-17T22:59:58.255Z,8.00
2018-02-17T23:02:24.113Z,9.03
2018-02-17T23:04:50.013Z,9.57
2018-02-17T23:07:16.246Z,7.17
2018-02-17T23:09:42.096Z,9.47
2018-02-17T23:12:08.078Z,9.63
2018-02-17T23:14:33.960Z,10.10
2018-02-17T23:16:59.876Z,9.97
2018-02-17T23:19:25.732Z,10.17
2018-02-17T23:21:51.641Z,11.67
2018-02-17T23:24:17.621Z,9.57
2018-02-17T23:26:43.456Z,10.80
2018-02-17T23:29:09.392Z,10.93
2018-02-17T23:31:35.323Z,10.97
2018-02-17T23:34:01.157Z,9.30
2018-02-17T23:36:27.169Z,10.87
2018-02-17T23:38:53.020Z,10.30
2018-02-17T23:41:18.913Z,10.40
2018-02-17T23:43:44.807Z,10.50
2018-02-17T23:46:10.652Z,8.00
2018-02-17T23:48:36.621Z,10.13
2018-02-17T23:51:02.516Z,8.90
2018-02-17T23:53:28.418Z,11.57
2018-02-17T23:55:54.269Z,11.30
2018-02-17T23:58:20.162Z,12.07
